Time;durP1;ratioP1;P1;durP2;ratioP2;P2;SDS_P1;SDS_P2;PMS_P1;PMS_P2;Temp;Humidity;BMP_temperature;BMP_pressure;BME280_temperature;BME280_humidity;BME280_pressure;Samples;Min_cycle;Max_cycle;Signal;HPM_P1;HPM_P2
2022/04/25 00:00:00;;;;;;;7.3;6.0;;;;;;;10.6;100.0;100600;;;;
2022/04/25 00:01:00;;;;;;;7.3;6.0;;;;;;;10.6;100.0;100600;;;;
2022/04/25 00:02:00;;;;;;;7.3;6.0;;;;;;;10.4;100.0;100590;;;;
2022/04/25 00:03:01;;;;;;;7.6;6.4;;;;;;;10.4;100.0;100590;;;;
2022/04/25 00:04:00;;;;;;;7.6;6.4;;;;;;;10.5;100.0;100600;;;;
2022/04/25 00:05:00;;;;;;;7.6;6.4;;;;;;;10.5;100.0;100600;;;;
2022/04/25 00:06:00;;;;;;;7.6;6.4;;;;;;;10.5;100.0;100590;;;;
2022/04/25 00:07:00;;;;;;;7.6;6.4;;;;;;;10.5;100.0;100590;;;;
2022/04/25 00:08:00;;;;;;;7.6;6.4;;;;;;;10.4;100.0;100590;;;;
2022/04/25 00:09:00;;;;;;;7.6;6.4;;;;;;;10.4;100.0;100590;;;;
2022/04/25 00:10:00;;;;;;;7.6;6.4;;;;;;;10.4;100.0;100600;;;;
2022/04/25 00:11:00;;;;;;;7.6;6.4;;;;;;;10.4;100.0;100600;;;;
2022/04/25 00:12:00;;;;;;;7.6;6.4;;;;;;;10.4;100.0;100600;;;;
2022/04/25 00:13:00;;;;;;;7.6;6.4;;;;;;;10.4;100.0;100600;;;;
2022/04/25 00:14:00;;;;;;;7.6;6.4;;;;;;;10.3;100.0;100600;;;;
2022/04/25 00:15:00;;;;;;;7.6;6.4;;;;;;;10.3;100.0;100600;;;;
2022/04/25 00:16:00;;;;;;;7.6;6.4;;;;;;;10.3;100.0;100600;;;;
2022/04/25 00:17:00;;;;;;;7.6;6.4;;;;;;;10.3;100.0;100600;;;;
2022/04/25 00:18:00;;;;;;;7.6;6.4;;;;;;;10.3;100.0;100600;;;;
2022/04/25 00:19:00;;;;;;;7.6;6.4;;;;;;;10.3;100.0;100600;;;;
2022/04/25 00:20:00;;;;;;;7.6;6.4;;;;;;;10.2;100.0;100600;;;;
2022/04/25 00:21:00;;;;;;;7.6;6.4;;;;;;;10.2;100.0;100600;;;;
2022/04/25 00:22:00;;;;;;;7.6;6.4;;;;;;;10.1;100.0;100600;;;;
2022/04/25 00:23:04;;;;;;;7.4;6.7;;;;;;;10.1;100.0;100600;;;;
2022/04/25 00:24:00;;;;;;;7.4;6.7;;;;;;;10.1;100.0;100600;;;;
2022/04/25 00:25:02;;;;;;;7.4;6.7;;;;;;;10.1;100.0;100600;;;;
2022/04/25 00:26:00;;;;;;;7.4;6.7;;;;;;;10.2;100.0;100600;;;;
2022/04/25 00:27:00;;;;;;;7.4;6.7;;;;;;;10.2;100.0;100600;;;;
2022/04/25 00:28:01;;;;;;;7.4;6.7;;;;;;;10.2;100.0;100600;;;;
2022/04/25 00:29:00;;;;;;;7.4;6.7;;;;;;;10.2;100.0;100600;;;;
2022/04/25 00:30:00;;;;;;;7.4;6.7;;;;;;;10.1;100.0;100600;;;;
2022/04/25 00:31:00;;;;;;;7.4;6.7;;;;;;;10.1;100.0;100600;;;;
2022/04/25 00:32:00;;;;;;;7.4;6.7;;;;;;;10.1;100.0;100600;;;;
2022/04/25 00:33:00;;;;;;;7.4;6.7;;;;;;;10.1;100.0;100600;;;;
2022/04/25 00:34:00;;;;;;;7.4;6.7;;;;;;;10.2;100.0;100600;;;;
2022/04/25 00:35:02;;;;;;;7.4;6.7;;;;;;;10.2;100.0;100600;;;;
2022/04/25 00:36:00;;;;;;;7.4;6.7;;;;;;;10.1;100.0;100600;;;;
2022/04/25 00:37:00;;;;;;;7.4;6.7;;;;;;;10.1;100.0;100600;;;;
2022/04/25 00:38:00;;;;;;;7.4;6.7;;;;;;;10.0;100.0;100600;;;;
2022/04/25 00:39:00;;;;;;;7.4;6.7;;;;;;;10.0;100.0;100600;;;;
2022/04/25 00:40:00;;;;;;;7.4;6.7;;;;;;;9.8;100.0;100600;;;;
2022/04/25 00:41:00;;;;;;;7.4;6.7;;;;;;;9.8;100.0;100600;;;;
2022/04/25 00:42:00;;;;;;;7.4;6.7;;;;;;;10.0;100.0;100600;;;;
2022/04/25 00:43:00;;;;;;;8.5;7.2;;;;;;;10.0;100.0;100600;;;;
2022/04/25 00:44:00;;;;;;;8.5;7.2;;;;;;;10.0;100.0;100600;;;;
2022/04/25 00:45:00;;;;;;;8.5;7.2;;;;;;;10.0;100.0;100600;;;;
2022/04/25 00:46:00;;;;;;;8.5;7.2;;;;;;;9.9;100.0;100600;;;;
2022/04/25 00:47:00;;;;;;;8.5;7.2;;;;;;;9.9;100.0;100600;;;;
2022/04/25 00:48:00;;;;;;;8.5;7.2;;;;;;;9.9;100.0;100600;;;;
2022/04/25 00:49:00;;;;;;;8.5;7.2;;;;;;;9.9;100.0;100600;;;;
2022/04/25 00:50:00;;;;;;;8.5;7.2;;;;;;;9.9;100.0;100600;;;;
2022/04/25 00:51:00;;;;;;;8.5;7.2;;;;;;;9.9;100.0;100600;;;;
2022/04/25 00:52:00;;;;;;;8.5;7.2;;;;;;;9.9;100.0;100600;;;;
2022/04/25 00:53:00;;;;;;;8.5;7.2;;;;;;;9.9;100.0;100600;;;;
2022/04/25 00:54:00;;;;;;;8.5;7.2;;;;;;;9.8;100.0;100600;;;;
2022/04/25 00:55:01;;;;;;;8.5;7.2;;;;;;;9.8;100.0;100600;;;;
2022/04/25 00:56:00;;;;;;;8.5;7.2;;;;;;;9.5;100.0;100610;;;;
2022/04/25 00:57:00;;;;;;;8.5;7.2;;;;;;;9.5;100.0;100610;;;;
2022/04/25 00:58:00;;;;;;;8.5;7.2;;;;;;;9.7;100.0;100600;;;;
2022/04/25 00:59:00;;;;;;;8.5;7.2;;;;;;;9.7;100.0;100600;;;;
2022/04/25 01:00:00;;;;;;;8.5;7.2;;;;;;;9.7;100.0;100610;;;;
2022/04/25 01:01:00;;;;;;;8.5;7.2;;;;;;;9.7;100.0;100610;;;;
2022/04/25 01:02:00;;;;;;;8.5;7.2;;;;;;;9.7;100.0;100600;;;;
2022/04/25 01:03:01;;;;;;;8.0;7.2;;;;;;;9.7;100.0;100600;;;;
2022/04/25 01:04:00;;;;;;;8.0;7.2;;;;;;;9.7;100.0;100600;;;;
2022/04/25 01:05:00;;;;;;;8.0;7.2;;;;;;;9.7;100.0;100600;;;;
2022/04/25 01:06:00;;;;;;;8.0;7.2;;;;;;;9.7;100.0;100600;;;;
2022/04/25 01:07:00;;;;;;;8.0;7.2;;;;;;;9.7;100.0;100600;;;;
2022/04/25 01:08:00;;;;;;;8.0;7.2;;;;;;;9.6;100.0;100610;;;;
2022/04/25 01:09:00;;;;;;;8.0;7.2;;;;;;;9.6;100.0;100610;;;;
2022/04/25 01:10:00;;;;;;;8.0;7.2;;;;;;;9.4;100.0;100610;;;;
2022/04/25 01:11:01;;;;;;;8.0;7.2;;;;;;;9.4;100.0;100610;;;;
2022/04/25 01:12:00;;;;;;;8.0;7.2;;;;;;;9.5;100.0;100610;;;;
2022/04/25 01:13:00;;;;;;;8.0;7.2;;;;;;;9.5;100.0;100610;;;;
2022/04/25 01:14:10;;;;;;;8.0;7.2;;;;;;;9.4;100.0;100610;;;;
2022/04/25 01:15:01;;;;;;;8.0;7.2;;;;;;;9.4;100.0;100610;;;;
2022/04/25 01:16:00;;;;;;;8.0;7.2;;;;;;;9.3;100.0;100610;;;;
2022/04/25 01:17:00;;;;;;;8.0;7.2;;;;;;;9.3;100.0;100610;;;;
2022/04/25 01:18:00;;;;;;;8.0;7.2;;;;;;;9.4;100.0;100610;;;;
2022/04/25 01:19:00;;;;;;;8.0;7.2;;;;;;;9.4;100.0;100610;;;;
2022/04/25 01:20:00;;;;;;;8.0;7.2;;;;;;;9.4;100.0;100610;;;;
2022/04/25 01:21:00;;;;;;;8.0;7.2;;;;;;;9.4;100.0;100610;;;;
2022/04/25 01:22:07;;;;;;;8.0;7.2;;;;;;;9.5;100.0;100610;;;;
2022/04/25 01:28:01;;;;;;;9.3;8.3;;;;;;;9.4;100.0;100610;;;;
2022/04/25 01:29:01;;;;;;;9.3;8.3;;;;;;;9.4;100.0;100610;;;;
2022/04/25 01:30:00;;;;;;;9.3;8.3;;;;;;;9.3;100.0;100610;;;;
2022/04/25 01:31:00;;;;;;;9.3;8.3;;;;;;;9.3;100.0;100610;;;;
2022/04/25 01:32:00;;;;;;;9.3;8.3;;;;;;;9.2;100.0;100600;;;;
2022/04/25 01:33:00;;;;;;;9.3;8.3;;;;;;;9.2;100.0;100600;;;;
2022/04/25 01:34:00;;;;;;;9.3;8.3;;;;;;;9.3;100.0;100610;;;;
2022/04/25 01:35:00;;;;;;;9.3;8.3;;;;;;;9.3;100.0;100610;;;;
2022/04/25 01:36:00;;;;;;;9.3;8.3;;;;;;;9.2;100.0;100600;;;;
2022/04/25 01:37:01;;;;;;;9.3;8.3;;;;;;;9.2;100.0;100600;;;;
2022/04/25 01:38:00;;;;;;;9.3;8.3;;;;;;;9.2;100.0;100610;;;;
2022/04/25 01:39:00;;;;;;;9.3;8.3;;;;;;;9.2;100.0;100610;;;;
2022/04/25 01:40:00;;;;;;;9.3;8.3;;;;;;;9.2;100.0;100610;;;;
2022/04/25 01:41:00;;;;;;;9.3;8.3;;;;;;;9.2;100.0;100610;;;;
2022/04/25 01:42:00;;;;;;;9.3;8.3;;;;;;;9.1;100.0;100610;;;;
2022/04/25 01:43:00;;;;;;;9.4;8.4;;;;;;;9.1;100.0;100610;;;;
2022/04/25 01:44:00;;;;;;;9.4;8.4;;;;;;;9.1;100.0;100610;;;;
2022/04/25 01:45:00;;;;;;;9.4;8.4;;;;;;;9.1;100.0;100610;;;;
2022/04/25 01:46:00;;;;;;;9.4;8.4;;;;;;;9.2;100.0;100600;;;;
2022/04/25 01:47:00;;;;;;;9.4;8.4;;;;;;;9.2;100.0;100600;;;;
2022/04/25 01:48:00;;;;;;;9.4;8.4;;;;;;;9.1;100.0;100610;;;;
2022/04/25 01:49:00;;;;;;;9.4;8.4;;;;;;;9.1;100.0;100610;;;;
2022/04/25 01:50:00;;;;;;;9.4;8.4;;;;;;;9.1;100.0;100610;;;;
2022/04/25 01:51:00;;;;;;;9.4;8.4;;;;;;;9.1;100.0;100610;;;;
2022/04/25 01:52:10;;;;;;;9.4;8.4;;;;;;;9.1;100.0;100610;;;;
2022/04/25 01:53:00;;;;;;;9.4;8.4;;;;;;;9.1;100.0;100610;;;;
2022/04/25 01:54:00;;;;;;;9.4;8.4;;;;;;;9.1;100.0;100610;;;;
2022/04/25 01:55:01;;;;;;;9.4;8.4;;;;;;;9.1;100.0;100610;;;;
2022/04/25 01:56:00;;;;;;;9.4;8.4;;;;;;;9.0;100.0;100610;;;;
2022/04/25 01:57:01;;;;;;;9.4;8.4;;;;;;;9.0;100.0;100610;;;;
2022/04/25 01:58:00;;;;;;;9.4;8.4;;;;;;;8.9;100.0;100610;;;;
2022/04/25 01:59:00;;;;;;;9.4;8.4;;;;;;;8.9;100.0;100610;;;;
2022/04/25 02:00:00;;;;;;;9.4;8.4;;;;;;;8.8;100.0;100610;;;;
2022/04/25 02:01:00;;;;;;;9.4;8.4;;;;;;;8.8;100.0;100610;;;;
2022/04/25 02:02:01;;;;;;;9.4;8.4;;;;;;;8.9;100.0;100610;;;;
2022/04/25 02:03:00;;;;;;;9.8;8.9;;;;;;;8.9;100.0;100610;;;;
2022/04/25 02:04:00;;;;;;;9.8;8.9;;;;;;;8.9;100.0;100600;;;;
2022/04/25 02:05:00;;;;;;;9.8;8.9;;;;;;;8.9;100.0;100600;;;;
2022/04/25 02:06:00;;;;;;;9.8;8.9;;;;;;;9.0;100.0;100600;;;;
2022/04/25 02:07:06;;;;;;;9.8;8.9;;;;;;;9.0;100.0;100600;;;;
2022/04/25 02:08:00;;;;;;;9.8;8.9;;;;;;;8.8;100.0;100600;;;;
2022/04/25 02:09:00;;;;;;;9.8;8.9;;;;;;;8.8;100.0;100600;;;;
2022/04/25 02:10:00;;;;;;;9.8;8.9;;;;;;;8.7;100.0;100610;;;;
2022/04/25 02:12:00;;;;;;;9.8;8.9;;;;;;;8.8;100.0;100600;;;;
2022/04/25 02:13:00;;;;;;;9.8;8.9;;;;;;;8.8;100.0;100600;;;;
2022/04/25 02:14:00;;;;;;;9.8;8.9;;;;;;;8.7;100.0;100600;;;;
2022/04/25 02:15:00;;;;;;;9.8;8.9;;;;;;;8.7;100.0;100600;;;;
2022/04/25 02:16:01;;;;;;;9.8;8.9;;;;;;;8.7;100.0;100610;;;;
2022/04/25 02:17:00;;;;;;;9.8;8.9;;;;;;;8.7;100.0;100610;;;;
2022/04/25 02:18:00;;;;;;;9.8;8.9;;;;;;;8.7;100.0;100600;;;;
2022/04/25 02:19:00;;;;;;;9.8;8.9;;;;;;;8.7;100.0;100600;;;;
2022/04/25 02:20:00;;;;;;;9.8;8.9;;;;;;;8.7;100.0;100600;;;;
2022/04/25 02:21:00;;;;;;;9.8;8.9;;;;;;;8.7;100.0;100600;;;;
2022/04/25 02:22:00;;;;;;;9.8;8.9;;;;;;;8.6;100.0;100600;;;;
2022/04/25 02:23:00;;;;;;;10.3;9.4;;;;;;;8.6;100.0;100600;;;;
2022/04/25 02:24:00;;;;;;;10.3;9.4;;;;;;;8.6;100.0;100600;;;;
2022/04/25 02:25:00;;;;;;;10.3;9.4;;;;;;;8.6;100.0;100600;;;;
2022/04/25 02:26:01;;;;;;;10.3;9.4;;;;;;;8.6;100.0;100600;;;;
2022/04/25 02:27:03;;;;;;;10.3;9.4;;;;;;;8.6;100.0;100600;;;;
2022/04/25 02:28:00;;;;;;;10.3;9.4;;;;;;;8.5;100.0;100600;;;;
2022/04/25 02:29:00;;;;;;;10.3;9.4;;;;;;;8.5;100.0;100600;;;;
2022/04/25 02:30:00;;;;;;;10.3;9.4;;;;;;;8.6;100.0;100590;;;;
2022/04/25 02:31:01;;;;;;;10.3;9.4;;;;;;;8.6;100.0;100590;;;;
2022/04/25 02:32:01;;;;;;;10.3;9.4;;;;;;;8.5;100.0;100590;;;;
2022/04/25 02:33:00;;;;;;;10.3;9.4;;;;;;;8.5;100.0;100590;;;;
2022/04/25 02:34:00;;;;;;;10.3;9.4;;;;;;;8.5;100.0;100590;;;;
2022/04/25 02:35:00;;;;;;;10.3;9.4;;;;;;;8.5;100.0;100590;;;;
2022/04/25 02:36:00;;;;;;;10.3;9.4;;;;;;;8.4;100.0;100590;;;;
2022/04/25 02:37:00;;;;;;;10.3;9.4;;;;;;;8.4;100.0;100590;;;;
2022/04/25 02:38:00;;;;;;;10.3;9.4;;;;;;;8.6;100.0;100600;;;;
2022/04/25 02:39:00;;;;;;;10.3;9.4;;;;;;;8.6;100.0;100600;;;;
2022/04/25 02:40:00;;;;;;;10.3;9.4;;;;;;;8.2;100.0;100600;;;;
2022/04/25 02:41:09;;;;;;;10.3;9.4;;;;;;;8.2;100.0;100600;;;;
2022/04/25 02:42:00;;;;;;;10.3;9.4;;;;;;;8.3;100.0;100600;;;;
2022/04/25 02:43:00;;;;;;;11.5;10.0;;;;;;;8.3;100.0;100600;;;;
2022/04/25 02:44:00;;;;;;;11.5;10.0;;;;;;;8.5;100.0;100600;;;;
2022/04/25 02:45:00;;;;;;;11.5;10.0;;;;;;;8.5;100.0;100600;;;;
2022/04/25 02:46:00;;;;;;;11.5;10.0;;;;;;;8.5;100.0;100600;;;;
2022/04/25 02:47:00;;;;;;;11.5;10.0;;;;;;;8.5;100.0;100600;;;;
2022/04/25 02:48:00;;;;;;;11.5;10.0;;;;;;;8.4;100.0;100600;;;;
2022/04/25 02:49:00;;;;;;;11.5;10.0;;;;;;;8.4;100.0;100600;;;;
2022/04/25 02:50:00;;;;;;;11.5;10.0;;;;;;;8.4;100.0;100600;;;;
2022/04/25 02:51:00;;;;;;;11.5;10.0;;;;;;;8.4;100.0;100600;;;;
2022/04/25 02:52:00;;;;;;;11.5;10.0;;;;;;;8.2;100.0;100600;;;;
2022/04/25 02:53:00;;;;;;;11.5;10.0;;;;;;;8.2;100.0;100600;;;;
2022/04/25 02:54:00;;;;;;;11.5;10.0;;;;;;;8.2;100.0;100600;;;;
2022/04/25 02:55:00;;;;;;;11.5;10.0;;;;;;;8.2;100.0;100600;;;;
2022/04/25 02:56:00;;;;;;;11.5;10.0;;;;;;;8.1;100.0;100600;;;;
2022/04/25 02:57:00;;;;;;;11.5;10.0;;;;;;;8.1;100.0;100600;;;;
2022/04/25 02:58:00;;;;;;;11.5;10.0;;;;;;;8.1;100.0;100590;;;;
2022/04/25 02:59:00;;;;;;;11.5;10.0;;;;;;;8.1;100.0;100590;;;;
2022/04/25 03:00:00;;;;;;;11.5;10.0;;;;;;;8.1;100.0;100600;;;;
2022/04/25 03:01:00;;;;;;;11.5;10.0;;;;;;;8.1;100.0;100600;;;;
2022/04/25 03:02:00;;;;;;;11.5;10.0;;;;;;;8.1;100.0;100590;;;;
2022/04/25 03:03:01;;;;;;;11.7;10.6;;;;;;;8.1;100.0;100590;;;;
2022/04/25 03:04:00;;;;;;;11.7;10.6;;;;;;;8.2;100.0;100590;;;;
2022/04/25 03:05:00;;;;;;;11.7;10.6;;;;;;;8.2;100.0;100590;;;;
2022/04/25 03:06:01;;;;;;;11.7;10.6;;;;;;;8.2;100.0;100590;;;;
2022/04/25 03:07:00;;;;;;;11.7;10.6;;;;;;;8.2;100.0;100590;;;;
2022/04/25 03:08:00;;;;;;;11.7;10.6;;;;;;;8.2;100.0;100600;;;;
2022/04/25 03:09:00;;;;;;;11.7;10.6;;;;;;;8.2;100.0;100600;;;;
2022/04/25 03:10:00;;;;;;;11.7;10.6;;;;;;;8.2;100.0;100600;;;;
2022/04/25 03:11:01;;;;;;;11.7;10.6;;;;;;;8.2;100.0;100600;;;;
2022/04/25 03:12:00;;;;;;;11.7;10.6;;;;;;;8.1;100.0;100600;;;;
2022/04/25 03:13:00;;;;;;;11.7;10.6;;;;;;;8.1;100.0;100600;;;;
2022/04/25 03:14:00;;;;;;;11.7;10.6;;;;;;;8.1;100.0;100600;;;;
2022/04/25 03:15:00;;;;;;;11.7;10.6;;;;;;;8.1;100.0;100600;;;;
2022/04/25 03:16:01;;;;;;;11.7;10.6;;;;;;;8.1;100.0;100600;;;;
2022/04/25 03:17:00;;;;;;;11.7;10.6;;;;;;;8.1;100.0;100600;;;;
2022/04/25 03:18:01;;;;;;;11.7;10.6;;;;;;;8.1;100.0;100600;;;;
2022/04/25 03:19:00;;;;;;;11.7;10.6;;;;;;;8.1;100.0;100600;;;;
2022/04/25 03:20:00;;;;;;;11.7;10.6;;;;;;;8.1;100.0;100600;;;;
2022/04/25 03:21:00;;;;;;;11.7;10.6;;;;;;;8.1;100.0;100600;;;;
2022/04/25 03:22:01;;;;;;;11.7;10.6;;;;;;;8.1;100.0;100600;;;;
2022/04/25 03:23:00;;;;;;;14.4;11.9;;;;;;;8.1;100.0;100600;;;;
2022/04/25 03:24:02;;;;;;;14.4;11.9;;;;;;;8.2;100.0;100600;;;;
2022/04/25 03:25:00;;;;;;;14.4;11.9;;;;;;;8.2;100.0;100600;;;;
2022/04/25 03:26:00;;;;;;;14.4;11.9;;;;;;;8.1;100.0;100600;;;;
2022/04/25 03:27:00;;;;;;;14.4;11.9;;;;;;;8.1;100.0;100600;;;;
2022/04/25 03:28:00;;;;;;;14.4;11.9;;;;;;;8.0;100.0;100600;;;;
2022/04/25 03:29:00;;;;;;;14.4;11.9;;;;;;;8.0;100.0;100600;;;;
2022/04/25 03:30:00;;;;;;;14.4;11.9;;;;;;;8.0;100.0;100600;;;;
2022/04/25 03:31:00;;;;;;;14.4;11.9;;;;;;;8.0;100.0;100600;;;;
2022/04/25 03:32:00;;;;;;;14.4;11.9;;;;;;;7.9;100.0;100610;;;;
2022/04/25 03:33:00;;;;;;;14.4;11.9;;;;;;;7.9;100.0;100610;;;;
2022/04/25 03:34:00;;;;;;;14.4;11.9;;;;;;;7.9;100.0;100600;;;;
2022/04/25 03:35:02;;;;;;;14.4;11.9;;;;;;;7.9;100.0;100600;;;;
2022/04/25 03:36:01;;;;;;;14.4;11.9;;;;;;;8.0;100.0;100600;;;;
2022/04/25 03:37:00;;;;;;;14.4;11.9;;;;;;;8.0;100.0;100600;;;;
2022/04/25 03:38:00;;;;;;;14.4;11.9;;;;;;;8.0;100.0;100600;;;;
2022/04/25 03:39:00;;;;;;;14.4;11.9;;;;;;;8.0;100.0;100600;;;;
2022/04/25 03:40:00;;;;;;;14.4;11.9;;;;;;;7.9;100.0;100610;;;;
2022/04/25 03:41:00;;;;;;;14.4;11.9;;;;;;;7.9;100.0;100610;;;;
2022/04/25 03:42:01;;;;;;;14.4;11.9;;;;;;;7.9;100.0;100610;;;;
2022/04/25 03:43:00;;;;;;;13.7;12.3;;;;;;;7.9;100.0;100610;;;;
2022/04/25 03:44:00;;;;;;;13.7;12.3;;;;;;;7.9;100.0;100610;;;;
2022/04/25 03:45:00;;;;;;;13.7;12.3;;;;;;;7.9;100.0;100610;;;;
2022/04/25 03:46:00;;;;;;;13.7;12.3;;;;;;;7.9;100.0;100610;;;;
2022/04/25 03:47:00;;;;;;;13.7;12.3;;;;;;;7.9;100.0;100610;;;;
2022/04/25 03:48:00;;;;;;;13.7;12.3;;;;;;;7.9;100.0;100600;;;;
2022/04/25 03:49:00;;;;;;;13.7;12.3;;;;;;;7.9;100.0;100600;;;;
2022/04/25 03:50:00;;;;;;;13.7;12.3;;;;;;;7.8;100.0;100610;;;;
2022/04/25 03:51:00;;;;;;;13.7;12.3;;;;;;;7.8;100.0;100610;;;;
2022/04/25 03:52:00;;;;;;;13.7;12.3;;;;;;;7.8;100.0;100610;;;;
2022/04/25 03:53:08;;;;;;;13.7;12.3;;;;;;;7.8;100.0;100610;;;;
2022/04/25 03:54:00;;;;;;;13.7;12.3;;;;;;;7.9;100.0;100610;;;;
2022/04/25 03:58:00;;;;;;;13.7;12.3;;;;;;;7.8;100.0;100620;;;;
2022/04/25 03:59:00;;;;;;;13.7;12.3;;;;;;;7.8;100.0;100620;;;;
2022/04/25 04:00:00;;;;;;;13.7;12.3;;;;;;;7.7;100.0;100620;;;;
2022/04/25 04:01:02;;;;;;;13.7;12.3;;;;;;;7.7;100.0;100620;;;;
2022/04/25 04:02:00;;;;;;;13.3;12.0;;;;;;;7.6;100.0;100620;;;;
2022/04/25 04:03:00;;;;;;;13.3;12.0;;;;;;;7.6;100.0;100620;;;;
2022/04/25 04:04:05;;;;;;;13.3;12.0;;;;;;;7.5;100.0;100620;;;;
2022/04/25 04:05:00;;;;;;;13.3;12.0;;;;;;;7.5;100.0;100620;;;;
2022/04/25 04:06:00;;;;;;;13.3;12.0;;;;;;;7.4;100.0;100620;;;;
2022/04/25 04:07:01;;;;;;;13.3;12.0;;;;;;;7.4;100.0;100620;;;;
2022/04/25 04:08:00;;;;;;;13.3;12.0;;;;;;;7.6;100.0;100620;;;;
2022/04/25 04:09:44;;;;;;;13.3;12.0;;;;;;;7.6;100.0;100620;;;;
2022/04/25 04:10:00;;;;;;;13.3;12.0;;;;;;;7.6;100.0;100620;;;;
2022/04/25 04:11:00;;;;;;;13.3;12.0;;;;;;;7.6;100.0;100620;;;;
2022/04/25 04:12:00;;;;;;;13.3;12.0;;;;;;;7.4;100.0;100620;;;;
2022/04/25 04:13:02;;;;;;;13.3;12.0;;;;;;;7.4;100.0;100620;;;;
2022/04/25 04:14:00;;;;;;;13.3;12.0;;;;;;;7.5;100.0;100620;;;;
2022/04/25 04:15:02;;;;;;;13.3;12.0;;;;;;;7.5;100.0;100620;;;;
2022/04/25 04:16:00;;;;;;;13.3;12.0;;;;;;;7.5;100.0;100630;;;;
2022/04/25 04:17:00;;;;;;;13.3;12.0;;;;;;;7.5;100.0;100630;;;;
2022/04/25 04:18:00;;;;;;;13.3;12.0;;;;;;;7.6;100.0;100630;;;;
2022/04/25 04:19:00;;;;;;;13.3;12.0;;;;;;;7.6;100.0;100630;;;;
2022/04/25 04:20:00;;;;;;;13.3;12.0;;;;;;;7.7;100.0;100630;;;;
2022/04/25 04:21:06;;;;;;;13.3;12.0;;;;;;;7.7;100.0;100630;;;;
2022/04/25 04:22:02;;;;;;;14.6;13.1;;;;;;;7.7;100.0;100630;;;;
2022/04/25 04:23:00;;;;;;;14.6;13.1;;;;;;;7.7;100.0;100630;;;;
2022/04/25 04:24:01;;;;;;;14.6;13.1;;;;;;;7.9;100.0;100640;;;;
2022/04/25 04:25:01;;;;;;;14.6;13.1;;;;;;;7.9;100.0;100640;;;;
2022/04/25 04:26:00;;;;;;;14.6;13.1;;;;;;;7.8;100.0;100640;;;;
2022/04/25 04:27:02;;;;;;;14.6;13.1;;;;;;;7.8;100.0;100640;;;;
2022/04/25 04:28:00;;;;;;;14.6;13.1;;;;;;;7.7;100.0;100640;;;;
2022/04/25 04:29:00;;;;;;;14.6;13.1;;;;;;;7.7;100.0;100640;;;;
2022/04/25 04:30:06;;;;;;;14.6;13.1;;;;;;;7.8;100.0;100640;;;;
2022/04/25 04:31:00;;;;;;;14.6;13.1;;;;;;;7.8;100.0;100640;;;;
2022/04/25 04:32:01;;;;;;;14.6;13.1;;;;;;;7.8;100.0;100640;;;;
2022/04/25 04:33:00;;;;;;;14.6;13.1;;;;;;;7.8;100.0;100640;;;;
2022/04/25 04:34:00;;;;;;;14.6;13.1;;;;;;;7.9;100.0;100640;;;;
2022/04/25 04:35:01;;;;;;;14.6;13.1;;;;;;;7.9;100.0;100640;;;;
2022/04/25 04:37:00;;;;;;;14.6;13.1;;;;;;;8.0;100.0;100640;;;;
2022/04/25 04:38:00;;;;;;;14.6;13.1;;;;;;;8.0;100.0;100650;;;;
2022/04/25 04:39:00;;;;;;;14.6;13.1;;;;;;;8.0;100.0;100650;;;;
2022/04/25 04:41:00;;;;;;;14.6;13.1;;;;;;;8.0;100.0;100650;;;;
2022/04/25 04:42:00;;;;;;;15.4;13.9;;;;;;;8.1;100.0;100640;;;;
2022/04/25 04:43:00;;;;;;;15.4;13.9;;;;;;;8.1;100.0;100640;;;;
2022/04/25 04:44:00;;;;;;;15.4;13.9;;;;;;;8.1;100.0;100650;;;;
2022/04/25 04:45:00;;;;;;;15.4;13.9;;;;;;;8.1;100.0;100650;;;;
2022/04/25 04:46:00;;;;;;;15.4;13.9;;;;;;;7.9;100.0;100650;;;;
2022/04/25 04:47:00;;;;;;;15.4;13.9;;;;;;;7.9;100.0;100650;;;;
2022/04/25 04:48:00;;;;;;;15.4;13.9;;;;;;;8.1;100.0;100650;;;;
2022/04/25 04:49:00;;;;;;;15.4;13.9;;;;;;;8.1;100.0;100650;;;;
2022/04/25 04:50:00;;;;;;;15.4;13.9;;;;;;;8.1;100.0;100650;;;;
2022/04/25 04:51:00;;;;;;;15.4;13.9;;;;;;;8.1;100.0;100650;;;;
2022/04/25 04:52:00;;;;;;;15.4;13.9;;;;;;;8.1;100.0;100660;;;;
2022/04/25 04:53:00;;;;;;;15.4;13.9;;;;;;;8.1;100.0;100660;;;;
2022/04/25 04:54:01;;;;;;;15.4;13.9;;;;;;;8.1;100.0;100660;;;;
2022/04/25 04:55:00;;;;;;;15.4;13.9;;;;;;;8.1;100.0;100660;;;;
2022/04/25 04:56:00;;;;;;;15.4;13.9;;;;;;;8.2;100.0;100660;;;;
2022/04/25 04:57:00;;;;;;;15.4;13.9;;;;;;;8.2;100.0;100660;;;;
2022/04/25 04:58:00;;;;;;;15.4;13.9;;;;;;;8.2;100.0;100670;;;;
2022/04/25 04:59:00;;;;;;;15.4;13.9;;;;;;;8.2;100.0;100670;;;;
2022/04/25 05:00:00;;;;;;;15.4;13.9;;;;;;;8.2;100.0;100670;;;;
2022/04/25 05:01:01;;;;;;;15.4;13.9;;;;;;;8.2;100.0;100670;;;;
2022/04/25 05:02:01;;;;;;;16.0;14.3;;;;;;;8.3;100.0;100670;;;;
2022/04/25 05:03:00;;;;;;;16.0;14.3;;;;;;;8.3;100.0;100670;;;;
2022/04/25 05:04:00;;;;;;;16.0;14.3;;;;;;;8.3;100.0;100670;;;;
2022/04/25 05:05:00;;;;;;;16.0;14.3;;;;;;;8.3;100.0;100670;;;;
2022/04/25 05:06:00;;;;;;;16.0;14.3;;;;;;;8.3;100.0;100670;;;;
2022/04/25 05:07:00;;;;;;;16.0;14.3;;;;;;;8.3;100.0;100670;;;;
2022/04/25 05:08:02;;;;;;;16.0;14.3;;;;;;;8.4;100.0;100670;;;;
2022/04/25 05:09:00;;;;;;;16.0;14.3;;;;;;;8.4;100.0;100670;;;;
2022/04/25 05:10:03;;;;;;;16.0;14.3;;;;;;;8.5;100.0;100670;;;;
2022/04/25 05:11:00;;;;;;;16.0;14.3;;;;;;;8.5;100.0;100670;;;;
2022/04/25 05:12:00;;;;;;;16.0;14.3;;;;;;;8.5;100.0;100680;;;;
2022/04/25 05:13:00;;;;;;;16.0;14.3;;;;;;;8.5;100.0;100680;;;;
2022/04/25 05:14:07;;;;;;;16.0;14.3;;;;;;;8.5;100.0;100680;;;;
2022/04/25 05:15:03;;;;;;;16.0;14.3;;;;;;;8.5;100.0;100680;;;;
2022/04/25 05:16:00;;;;;;;16.0;14.3;;;;;;;8.5;100.0;100680;;;;
2022/04/25 05:17:00;;;;;;;16.0;14.3;;;;;;;8.5;100.0;100680;;;;
2022/04/25 05:18:00;;;;;;;16.0;14.3;;;;;;;8.5;100.0;100690;;;;
2022/04/25 05:19:00;;;;;;;16.0;14.3;;;;;;;8.5;100.0;100690;;;;
2022/04/25 05:20:00;;;;;;;16.0;14.3;;;;;;;8.6;100.0;100690;;;;
2022/04/25 05:21:00;;;;;;;16.0;14.3;;;;;;;8.6;100.0;100690;;;;
2022/04/25 05:22:00;;;;;;;15.5;14.0;;;;;;;8.8;100.0;100690;;;;
2022/04/25 05:23:02;;;;;;;15.5;14.0;;;;;;;8.8;100.0;100690;;;;
2022/04/25 05:24:00;;;;;;;15.5;14.0;;;;;;;8.6;100.0;100690;;;;
2022/04/25 05:25:01;;;;;;;15.5;14.0;;;;;;;8.6;100.0;100690;;;;
2022/04/25 05:26:00;;;;;;;15.5;14.0;;;;;;;8.6;100.0;100690;;;;
2022/04/25 05:27:00;;;;;;;15.5;14.0;;;;;;;8.6;100.0;100690;;;;
2022/04/25 05:28:00;;;;;;;15.5;14.0;;;;;;;8.7;100.0;100690;;;;
2022/04/25 05:29:00;;;;;;;15.5;14.0;;;;;;;8.7;100.0;100690;;;;
2022/04/25 05:30:00;;;;;;;15.5;14.0;;;;;;;8.6;100.0;100690;;;;
2022/04/25 05:31:00;;;;;;;15.5;14.0;;;;;;;8.6;100.0;100690;;;;
2022/04/25 05:32:10;;;;;;;15.5;14.0;;;;;;;8.7;100.0;100700;;;;
2022/04/25 05:33:02;;;;;;;15.5;14.0;;;;;;;8.7;100.0;100700;;;;
2022/04/25 05:34:01;;;;;;;15.5;14.0;;;;;;;8.6;100.0;100700;;;;
2022/04/25 05:35:00;;;;;;;15.5;14.0;;;;;;;8.6;100.0;100700;;;;
2022/04/25 05:36:00;;;;;;;15.5;14.0;;;;;;;8.6;100.0;100700;;;;
2022/04/25 05:37:00;;;;;;;15.5;14.0;;;;;;;8.6;100.0;100700;;;;
2022/04/25 05:38:01;;;;;;;15.5;14.0;;;;;;;8.8;100.0;100700;;;;
2022/04/25 05:39:00;;;;;;;15.5;14.0;;;;;;;8.8;100.0;100700;;;;
2022/04/25 05:40:00;;;;;;;15.5;14.0;;;;;;;8.7;100.0;100700;;;;
2022/04/25 05:41:00;;;;;;;15.5;14.0;;;;;;;8.7;100.0;100700;;;;
2022/04/25 05:42:00;;;;;;;17.2;15.5;;;;;;;8.6;100.0;100700;;;;
2022/04/25 05:43:02;;;;;;;17.2;15.5;;;;;;;8.6;100.0;100700;;;;
2022/04/25 05:44:00;;;;;;;17.2;15.5;;;;;;;8.6;100.0;100710;;;;
2022/04/25 05:45:00;;;;;;;17.2;15.5;;;;;;;8.6;100.0;100710;;;;
2022/04/25 05:46:00;;;;;;;17.2;15.5;;;;;;;8.7;100.0;100710;;;;
2022/04/25 05:47:00;;;;;;;17.2;15.5;;;;;;;8.7;100.0;100710;;;;
2022/04/25 05:48:00;;;;;;;17.2;15.5;;;;;;;8.8;100.0;100710;;;;
2022/04/25 05:52:00;;;;;;;17.2;15.5;;;;;;;8.7;100.0;100720;;;;
2022/04/25 05:53:01;;;;;;;17.2;15.5;;;;;;;8.7;100.0;100720;;;;
2022/04/25 05:54:00;;;;;;;17.2;15.5;;;;;;;8.7;100.0;100720;;;;
2022/04/25 05:55:00;;;;;;;17.2;15.5;;;;;;;8.7;100.0;100720;;;;
2022/04/25 05:56:00;;;;;;;17.2;15.5;;;;;;;8.8;100.0;100720;;;;
2022/04/25 05:57:00;;;;;;;17.2;15.5;;;;;;;8.8;100.0;100720;;;;
2022/04/25 05:58:04;;;;;;;17.2;15.5;;;;;;;8.9;100.0;100720;;;;
2022/04/25 05:59:00;;;;;;;17.2;15.5;;;;;;;8.9;100.0;100720;;;;
2022/04/25 06:00:00;;;;;;;17.2;15.5;;;;;;;8.9;100.0;100720;;;;
2022/04/25 06:01:00;;;;;;;17.2;15.5;;;;;;;8.9;100.0;100720;;;;
2022/04/25 06:02:00;;;;;;;19.6;14.4;;;;;;;8.9;100.0;100720;;;;
2022/04/25 06:03:00;;;;;;;19.6;14.4;;;;;;;8.9;100.0;100720;;;;
2022/04/25 06:04:00;;;;;;;19.6;14.4;;;;;;;9.0;100.0;100720;;;;
2022/04/25 06:05:00;;;;;;;19.6;14.4;;;;;;;9.0;100.0;100720;;;;
2022/04/25 06:06:00;;;;;;;19.6;14.4;;;;;;;9.2;100.0;100720;;;;
2022/04/25 06:07:00;;;;;;;19.6;14.4;;;;;;;9.2;100.0;100720;;;;
2022/04/25 06:08:00;;;;;;;19.6;14.4;;;;;;;9.1;100.0;100720;;;;
2022/04/25 06:09:00;;;;;;;19.6;14.4;;;;;;;9.1;100.0;100720;;;;
2022/04/25 06:10:00;;;;;;;19.6;14.4;;;;;;;9.2;100.0;100720;;;;
2022/04/25 06:11:00;;;;;;;19.6;14.4;;;;;;;9.2;100.0;100720;;;;
2022/04/25 06:12:02;;;;;;;19.6;14.4;;;;;;;9.2;100.0;100720;;;;
2022/04/25 06:13:00;;;;;;;19.6;14.4;;;;;;;9.2;100.0;100720;;;;
2022/04/25 06:14:02;;;;;;;19.6;14.4;;;;;;;9.2;100.0;100720;;;;
2022/04/25 06:15:00;;;;;;;19.6;14.4;;;;;;;9.2;100.0;100720;;;;
2022/04/25 06:16:00;;;;;;;19.6;14.4;;;;;;;9.2;100.0;100730;;;;
2022/04/25 06:17:00;;;;;;;19.6;14.4;;;;;;;9.2;100.0;100730;;;;
2022/04/25 06:18:00;;;;;;;19.6;14.4;;;;;;;9.2;100.0;100730;;;;
2022/04/25 06:19:01;;;;;;;19.6;14.4;;;;;;;9.2;100.0;100730;;;;
2022/04/25 06:20:00;;;;;;;19.6;14.4;;;;;;;9.3;100.0;100730;;;;
2022/04/25 06:21:04;;;;;;;19.6;14.4;;;;;;;9.3;100.0;100730;;;;
2022/04/25 06:22:00;;;;;;;17.5;15.8;;;;;;;9.4;100.0;100730;;;;
2022/04/25 06:23:04;;;;;;;17.5;15.8;;;;;;;9.4;100.0;100730;;;;
2022/04/25 06:24:00;;;;;;;17.5;15.8;;;;;;;9.3;100.0;100730;;;;
2022/04/25 06:25:00;;;;;;;17.5;15.8;;;;;;;9.3;100.0;100730;;;;
2022/04/25 06:26:00;;;;;;;17.5;15.8;;;;;;;9.4;100.0;100740;;;;
2022/04/25 06:27:00;;;;;;;17.5;15.8;;;;;;;9.4;100.0;100740;;;;
2022/04/25 06:28:00;;;;;;;17.5;15.8;;;;;;;9.4;100.0;100740;;;;
2022/04/25 06:29:00;;;;;;;17.5;15.8;;;;;;;9.4;100.0;100740;;;;
2022/04/25 06:30:04;;;;;;;17.5;15.8;;;;;;;9.5;100.0;100740;;;;
2022/04/25 06:31:00;;;;;;;17.5;15.8;;;;;;;9.5;100.0;100740;;;;
2022/04/25 06:32:03;;;;;;;17.5;15.8;;;;;;;9.4;100.0;100740;;;;
2022/04/25 06:33:00;;;;;;;17.5;15.8;;;;;;;9.4;100.0;100740;;;;
2022/04/25 06:34:00;;;;;;;17.5;15.8;;;;;;;9.4;100.0;100740;;;;